sensor_id;sensor_type;location;lat;lon;timestamp;pressure;altitude;pressure_sealevel;temperature;humidity
58471;BME280;44258;51.288;12.068;2023-05-10T00:02:24;99853.22;;;11.72;52.91
58471;BME280;44258;51.288;12.068;2023-05-10T00:04:51;99852.50;;;11.83;52.43
58471;BME280;44258;51.288;12.068;2023-05-10T00:07:20;99857.56;;;11.88;52.30
58471;BME280;44258;51.288;12.068;2023-05-10T00:09:47;99856.94;;;11.97;51.99
58471;BME280;44258;51.288;12.068;2023-05-10T00:12:14;99853.69;;;11.92;52.15
58471;BME280;44258;51.288;12.068;2023-05-10T00:14:40;99849.16;;;11.92;51.78
58471;BME280;44258;51.288;12.068;2023-05-10T00:17:07;99846.69;;;11.89;52.11
58471;BME280;44258;51.288;12.068;2023-05-10T00:19:33;99838.69;;;11.88;52.17
58471;BME280;44258;51.288;12.068;2023-05-10T00:22:00;99841.38;;;11.88;52.30
58471;BME280;44258;51.288;12.068;2023-05-10T00:24:28;99841.72;;;11.83;52.19
58471;BME280;44258;51.288;12.068;2023-05-10T00:26:55;99840.06;;;11.81;52.29
58471;BME280;44258;51.288;12.068;2023-05-10T00:29:21;99838.03;;;11.84;52.53
58471;BME280;44258;51.288;12.068;2023-05-10T00:31:48;99846.25;;;11.95;52.37
58471;BME280;44258;51.288;12.068;2023-05-10T00:34:14;99841.88;;;12.07;52.18
58471;BME280;44258;51.288;12.068;2023-05-10T00:36:43;99845.00;;;12.14;51.75
58471;BME280;44258;51.288;12.068;2023-05-10T00:39:10;99833.34;;;12.26;51.50
58471;BME280;44258;51.288;12.068;2023-05-10T00:41:39;99835.03;;;12.27;51.52
58471;BME280;44258;51.288;12.068;2023-05-10T00:44:08;99831.16;;;12.31;51.50
58471;BME280;44258;51.288;12.068;2023-05-10T00:46:35;99833.34;;;12.26;51.27
58471;BME280;44258;51.288;12.068;2023-05-10T00:49:02;99833.97;;;12.17;51.33
58471;BME280;44258;51.288;12.068;2023-05-10T00:51:30;99842.81;;;12.06;51.77
58471;BME280;44258;51.288;12.068;2023-05-10T00:53:58;99832.25;;;12.03;51.86
58471;BME280;44258;51.288;12.068;2023-05-10T00:56:25;99837.41;;;11.93;51.94
58471;BME280;44258;51.288;12.068;2023-05-10T00:58:53;99830.19;;;11.81;52.31
58471;BME280;44258;51.288;12.068;2023-05-10T01:01:20;99823.38;;;11.75;52.33
58471;BME280;44258;51.288;12.068;2023-05-10T01:03:47;99825.94;;;11.64;52.61
58471;BME280;44258;51.288;12.068;2023-05-10T01:06:16;99820.78;;;11.61;52.73
58471;BME280;44258;51.288;12.068;2023-05-10T01:08:43;99821.22;;;11.55;52.82
58471;BME280;44258;51.288;12.068;2023-05-10T01:11:09;99825.75;;;11.54;53.05
58471;BME280;44258;51.288;12.068;2023-05-10T01:13:39;99818.72;;;11.52;53.00
58471;BME280;44258;51.288;12.068;2023-05-10T01:16:08;99816.44;;;11.46;52.97
58471;BME280;44258;51.288;12.068;2023-05-10T01:18:38;99817.31;;;11.46;53.16
58471;BME280;44258;51.288;12.068;2023-05-10T01:21:19;99818.59;;;11.41;53.14
58471;BME280;44258;51.288;12.068;2023-05-10T01:24:14;99816.31;;;11.34;53.30
58471;BME280;44258;51.288;12.068;2023-05-10T01:32:48;99808.59;;;11.15;53.50
58471;BME280;44258;51.288;12.068;2023-05-10T01:35:23;99809.13;;;11.08;53.80
58471;BME280;44258;51.288;12.068;2023-05-10T01:38:01;99809.06;;;10.95;54.31
58471;BME280;44258;51.288;12.068;2023-05-10T01:40:33;99814.75;;;10.90;54.36
58471;BME280;44258;51.288;12.068;2023-05-10T01:43:07;99800.56;;;10.88;54.53
58471;BME280;44258;51.288;12.068;2023-05-10T01:45:39;99807.66;;;10.89;54.40
58471;BME280;44258;51.288;12.068;2023-05-10T01:48:10;99811.22;;;10.90;54.40
58471;BME280;44258;51.288;12.068;2023-05-10T01:50:42;99799.88;;;10.85;54.60
58471;BME280;44258;51.288;12.068;2023-05-10T01:53:13;99790.88;;;10.86;54.53
58471;BME280;44258;51.288;12.068;2023-05-10T01:55:46;99804.84;;;10.91;54.13
58471;BME280;44258;51.288;12.068;2023-05-10T01:58:18;99795.06;;;10.90;54.26
58471;BME280;44258;51.288;12.068;2023-05-10T02:00:47;99794.31;;;10.88;54.20
58471;BME280;44258;51.288;12.068;2023-05-10T02:03:20;99797.19;;;10.85;54.00
58471;BME280;44258;51.288;12.068;2023-05-10T02:05:48;99797.94;;;10.87;54.11
58471;BME280;44258;51.288;12.068;2023-05-10T02:08:17;99803.81;;;10.93;54.08
58471;BME280;44258;51.288;12.068;2023-05-10T02:10:50;99791.97;;;10.96;53.78
58471;BME280;44258;51.288;12.068;2023-05-10T02:13:19;99796.28;;;10.99;53.73
58471;BME280;44258;51.288;12.068;2023-05-10T02:15:47;99798.97;;;10.99;53.61
58471;BME280;44258;51.288;12.068;2023-05-10T02:18:18;99789.19;;;10.98;53.48
58471;BME280;44258;51.288;12.068;2023-05-10T02:20:46;99797.75;;;10.90;53.56
58471;BME280;44258;51.288;12.068;2023-05-10T02:23:13;99792.88;;;10.82;53.82
58471;BME280;44258;51.288;12.068;2023-05-10T02:25:41;99786.44;;;10.85;53.85
58471;BME280;44258;51.288;12.068;2023-05-10T02:28:11;99801.53;;;10.87;53.87
58471;BME280;44258;51.288;12.068;2023-05-10T02:30:38;99791.22;;;10.94;53.67
58471;BME280;44258;51.288;12.068;2023-05-10T02:33:06;99786.78;;;10.93;53.53
58471;BME280;44258;51.288;12.068;2023-05-10T02:35:34;99790.97;;;10.84;53.90
58471;BME280;44258;51.288;12.068;2023-05-10T02:38:03;99801.41;;;10.89;53.97
58471;BME280;44258;51.288;12.068;2023-05-10T02:40:32;99787.31;;;10.85;53.71
58471;BME280;44258;51.288;12.068;2023-05-10T02:43:01;99788.84;;;10.75;54.02
58471;BME280;44258;51.288;12.068;2023-05-10T02:45:31;99781.75;;;10.74;54.11
58471;BME280;44258;51.288;12.068;2023-05-10T02:47:58;99787.97;;;10.74;54.19
58471;BME280;44258;51.288;12.068;2023-05-10T02:50:27;99797.69;;;10.77;54.09
58471;BME280;44258;51.288;12.068;2023-05-10T02:53:00;99794.50;;;10.85;53.85
58471;BME280;44258;51.288;12.068;2023-05-10T02:55:32;99784.50;;;10.87;53.74
58471;BME280;44258;51.288;12.068;2023-05-10T02:58:02;99785.75;;;10.96;53.59
58471;BME280;44258;51.288;12.068;2023-05-10T03:00:28;99783.84;;;11.10;53.35
58471;BME280;44258;51.288;12.068;2023-05-10T03:02:55;99778.59;;;11.22;52.92
58471;BME280;44258;51.288;12.068;2023-05-10T03:05:22;99783.69;;;11.26;52.71
58471;BME280;44258;51.288;12.068;2023-05-10T03:07:49;99791.09;;;11.23;52.73
58471;BME280;44258;51.288;12.068;2023-05-10T03:10:18;99791.28;;;11.20;52.73
58471;BME280;44258;51.288;12.068;2023-05-10T03:12:55;99793.53;;;11.13;52.99
58471;BME280;44258;51.288;12.068;2023-05-10T03:15:31;99794.09;;;11.18;53.02
58471;BME280;44258;51.288;12.068;2023-05-10T03:18:05;99790.75;;;11.14;52.96
58471;BME280;44258;51.288;12.068;2023-05-10T03:20:35;99795.38;;;11.12;52.93
58471;BME280;44258;51.288;12.068;2023-05-10T03:23:12;99798.72;;;11.16;52.96
58471;BME280;44258;51.288;12.068;2023-05-10T03:25:42;99792.41;;;11.30;52.87
58471;BME280;44258;51.288;12.068;2023-05-10T03:28:11;99788.84;;;11.29;52.93
58471;BME280;44258;51.288;12.068;2023-05-10T03:30:44;99799.06;;;11.24;53.67
58471;BME280;44258;51.288;12.068;2023-05-10T03:33:12;99791.47;;;11.04;54.35
58471;BME280;44258;51.288;12.068;2023-05-10T03:35:39;99798.91;;;11.13;53.95
58471;BME280;44258;51.288;12.068;2023-05-10T03:38:05;99800.44;;;11.17;53.21
58471;BME280;44258;51.288;12.068;2023-05-10T03:40:32;99798.50;;;11.19;53.11
58471;BME280;44258;51.288;12.068;2023-05-10T03:43:00;99795.81;;;11.19;52.99
58471;BME280;44258;51.288;12.068;2023-05-10T03:45:27;99792.69;;;11.12;53.12
58471;BME280;44258;51.288;12.068;2023-05-10T03:47:53;99795.78;;;11.06;53.33
58471;BME280;44258;51.288;12.068;2023-05-10T03:50:32;99798.22;;;10.97;53.49
58471;BME280;44258;51.288;12.068;2023-05-10T03:52:59;99792.53;;;11.01;53.50
58471;BME280;44258;51.288;12.068;2023-05-10T03:55:25;99798.44;;;10.93;53.83
58471;BME280;44258;51.288;12.068;2023-05-10T03:57:53;99789.28;;;10.96;53.92
58471;BME280;44258;51.288;12.068;2023-05-10T04:00:24;99797.34;;;10.96;53.97
58471;BME280;44258;51.288;12.068;2023-05-10T04:02:53;99805.47;;;11.09;53.65
58471;BME280;44258;51.288;12.068;2023-05-10T04:05:20;99799.25;;;11.21;53.86
58471;BME280;44258;51.288;12.068;2023-05-10T04:07:46;99792.28;;;11.31;53.25
58471;BME280;44258;51.288;12.068;2023-05-10T04:10:14;99786.38;;;11.26;53.42
58471;BME280;44258;51.288;12.068;2023-05-10T04:12:41;99798.31;;;11.22;53.59
58471;BME280;44258;51.288;12.068;2023-05-10T04:15:11;99794.44;;;11.26;53.68
58471;BME280;44258;51.288;12.068;2023-05-10T04:17:39;99798.34;;;11.35;53.66
58471;BME280;44258;51.288;12.068;2023-05-10T04:20:07;99793.53;;;11.53;53.42
58471;BME280;44258;51.288;12.068;2023-05-10T04:22:34;99800.66;;;11.67;53.09
58471;BME280;44258;51.288;12.068;2023-05-10T04:25:01;99798.72;;;11.69;53.10
58471;BME280;44258;51.288;12.068;2023-05-10T04:27:27;99800.44;;;11.70;53.17
58471;BME280;44258;51.288;12.068;2023-05-10T04:29:54;99792.91;;;11.75;53.34
58471;BME280;44258;51.288;12.068;2023-05-10T04:32:21;99793.53;;;11.79;53.76
58471;BME280;44258;51.288;12.068;2023-05-10T04:34:51;99793.44;;;11.80;54.11
58471;BME280;44258;51.288;12.068;2023-05-10T04:37:18;99793.00;;;11.73;54.42
58471;BME280;44258;51.288;12.068;2023-05-10T04:39:45;99794.19;;;11.69;54.77
58471;BME280;44258;51.288;12.068;2023-05-10T04:42:11;99789.13;;;11.78;55.01
58471;BME280;44258;51.288;12.068;2023-05-10T04:44:40;99788.38;;;11.88;54.77
58471;BME280;44258;51.288;12.068;2023-05-10T04:47:10;99784.59;;;12.04;54.57
58471;BME280;44258;51.288;12.068;2023-05-10T04:49:38;99793.69;;;12.16;54.64
58471;BME280;44258;51.288;12.068;2023-05-10T04:52:07;99793.34;;;12.20;54.64
58471;BME280;44258;51.288;12.068;2023-05-10T04:54:33;99792.56;;;12.31;54.58
58471;BME280;44258;51.288;12.068;2023-05-10T04:57:00;99798.16;;;12.41;54.24
58471;BME280;44258;51.288;12.068;2023-05-10T04:59:26;99796.63;;;12.49;54.14
58471;BME280;44258;51.288;12.068;2023-05-10T05:01:54;99791.53;;;12.58;54.29
58471;BME280;44258;51.288;12.068;2023-05-10T05:04:21;99793.84;;;12.75;53.98
58471;BME280;44258;51.288;12.068;2023-05-10T05:06:49;99792.84;;;12.89;53.40
58471;BME280;44258;51.288;12.068;2023-05-10T05:09:17;99797.44;;;13.00;53.12
58471;BME280;44258;51.288;12.068;2023-05-10T05:11:46;99808.72;;;13.05;52.45
58471;BME280;44258;51.288;12.068;2023-05-10T05:14:12;99793.41;;;13.05;52.59
58471;BME280;44258;51.288;12.068;2023-05-10T05:16:39;99798.66;;;13.07;52.56
58471;BME280;44258;51.288;12.068;2023-05-10T05:19:06;99796.72;;;13.09;52.50
58471;BME280;44258;51.288;12.068;2023-05-10T05:21:33;99794.44;;;13.15;52.45
58471;BME280;44258;51.288;12.068;2023-05-10T05:24:01;99790.25;;;13.11;52.42
58471;BME280;44258;51.288;12.068;2023-05-10T05:26:29;99791.28;;;13.22;52.46
58471;BME280;44258;51.288;12.068;2023-05-10T05:28:55;99804.22;;;13.29;52.17
58471;BME280;44258;51.288;12.068;2023-05-10T05:31:22;99800.06;;;13.37;52.31
58471;BME280;44258;51.288;12.068;2023-05-10T05:33:49;99801.91;;;13.36;52.16
58471;BME280;44258;51.288;12.068;2023-05-10T05:36:18;99801.84;;;13.25;52.36
58471;BME280;44258;51.288;12.068;2023-05-10T05:38:45;99807.16;;;13.26;52.66
58471;BME280;44258;51.288;12.068;2023-05-10T05:41:11;99809.44;;;13.20;53.14
58471;BME280;44258;51.288;12.068;2023-05-10T05:43:40;99808.63;;;13.30;52.75
58471;BME280;44258;51.288;12.068;2023-05-10T05:46:09;99806.09;;;13.40;52.32
58471;BME280;44258;51.288;12.068;2023-05-10T05:48:36;99804.16;;;13.42;52.18
58471;BME280;44258;51.288;12.068;2023-05-10T05:51:07;99798.00;;;13.40;52.50
58471;BME280;44258;51.288;12.068;2023-05-10T05:53:34;99798.03;;;13.51;52.55
58471;BME280;44258;51.288;12.068;2023-05-10T05:56:05;99808.88;;;13.63;52.22
58471;BME280;44258;51.288;12.068;2023-05-10T05:58:33;99808.41;;;13.69;51.84
58471;BME280;44258;51.288;12.068;2023-05-10T06:01:01;99816.03;;;13.75;51.83
58471;BME280;44258;51.288;12.068;2023-05-10T06:03:27;99804.38;;;13.86;51.40
58471;BME280;44258;51.288;12.068;2023-05-10T06:05:54;99817.66;;;13.89;51.11
58471;BME280;44258;51.288;12.068;2023-05-10T06:08:21;99813.47;;;13.96;51.45
58471;BME280;44258;51.288;12.068;2023-05-10T06:10:55;99810.69;;;14.09;51.83
58471;BME280;44258;51.288;12.068;2023-05-10T06:13:21;99809.94;;;14.18;50.84
58471;BME280;44258;51.288;12.068;2023-05-10T06:15:48;99807.75;;;14.23;50.66
58471;BME280;44258;51.288;12.068;2023-05-10T06:18:16;99813.25;;;14.10;50.82
58471;BME280;44258;51.288;12.068;2023-05-10T06:20:43;99812.91;;;14.15;50.85
58471;BME280;44258;51.288;12.068;2023-05-10T06:23:10;99810.03;;;14.17;50.81
58471;BME280;44258;51.288;12.068;2023-05-10T06:25:36;99810.19;;;14.15;50.97
58471;BME280;44258;51.288;12.068;2023-05-10T06:28:03;99818.78;;;14.20;51.06
58471;BME280;44258;51.288;12.068;2023-05-10T06:30:30;99819.19;;;14.38;50.93
58471;BME280;44258;51.288;12.068;2023-05-10T06:32:59;99819.19;;;14.61;50.65
58471;BME280;44258;51.288;12.068;2023-05-10T06:35:27;99828.88;;;14.74;50.87
58471;BME280;44258;51.288;12.068;2023-05-10T06:37:55;99825.69;;;14.81;50.67
58471;BME280;44258;51.288;12.068;2023-05-10T06:40:22;99827.53;;;15.12;50.48
58471;BME280;44258;51.288;12.068;2023-05-10T06:42:48;99825.53;;;15.37;50.27
58471;BME280;44258;51.288;12.068;2023-05-10T06:45:18;99828.19;;;15.48;50.08
58471;BME280;44258;51.288;12.068;2023-05-10T06:47:45;99837.97;;;15.61;49.67
58471;BME280;44258;51.288;12.068;2023-05-10T06:50:11;99836.00;;;15.63;49.18
58471;BME280;44258;51.288;12.068;2023-05-10T06:52:39;99835.78;;;15.54;49.26
58471;BME280;44258;51.288;12.068;2023-05-10T06:55:07;99843.16;;;15.64;49.52
58471;BME280;44258;51.288;12.068;2023-05-10T06:57:34;99842.94;;;15.56;49.66
58471;BME280;44258;51.288;12.068;2023-05-10T07:00:01;99835.88;;;15.43;50.60
58471;BME280;44258;51.288;12.068;2023-05-10T07:02:29;99837.38;;;15.57;49.98
58471;BME280;44258;51.288;12.068;2023-05-10T07:04:56;99836.66;;;15.55;48.87
58471;BME280;44258;51.288;12.068;2023-05-10T07:07:22;99845.06;;;15.52;49.64
58471;BME280;44258;51.288;12.068;2023-05-10T07:09:54;99853.50;;;15.59;50.44
58471;BME280;44258;51.288;12.068;2023-05-10T07:12:21;99848.63;;;15.52;50.70
58471;BME280;44258;51.288;12.068;2023-05-10T07:14:48;99851.81;;;15.58;51.10
58471;BME280;44258;51.288;12.068;2023-05-10T07:17:15;99849.94;;;15.58;51.11
58471;BME280;44258;51.288;12.068;2023-05-10T07:19:41;99851.31;;;15.52;51.06
58471;BME280;44258;51.288;12.068;2023-05-10T07:22:08;99850.16;;;15.34;52.41
58471;BME280;44258;51.288;12.068;2023-05-10T07:24:35;99858.56;;;15.20;52.29
58471;BME280;44258;51.288;12.068;2023-05-10T07:27:03;99853.66;;;15.13;53.07
58471;BME280;44258;51.288;12.068;2023-05-10T07:29:31;99851.91;;;15.12;52.13
58471;BME280;44258;51.288;12.068;2023-05-10T07:31:58;99853.16;;;15.08;52.51
58471;BME280;44258;51.288;12.068;2023-05-10T07:34:24;99852.91;;;15.11;51.83
58471;BME280;44258;51.288;12.068;2023-05-10T07:36:51;99863.25;;;15.18;51.86
58471;BME280;44258;51.288;12.068;2023-05-10T07:39:20;99868.16;;;15.24;51.82
58471;BME280;44258;51.288;12.068;2023-05-10T07:41:47;99867.94;;;15.04;53.20
58471;BME280;44258;51.288;12.068;2023-05-10T07:44:15;99873.16;;;14.85;53.22
58471;BME280;44258;51.288;12.068;2023-05-10T07:46:43;99872.44;;;14.83;54.06
58471;BME280;44258;51.288;12.068;2023-05-10T07:49:10;99871.56;;;14.71;54.67
58471;BME280;44258;51.288;12.068;2023-05-10T07:51:36;99878.31;;;14.65;54.66
58471;BME280;44258;51.288;12.068;2023-05-10T07:54:03;99873.78;;;14.54;54.96
58471;BME280;44258;51.288;12.068;2023-05-10T07:56:33;99878.22;;;14.67;54.89
58471;BME280;44258;51.288;12.068;2023-05-10T07:59:00;99881.75;;;14.90;54.74
58471;BME280;44258;51.288;12.068;2023-05-10T08:01:31;99879.03;;;14.90;54.82
58471;BME280;44258;51.288;12.068;2023-05-10T08:04:00;99888.13;;;15.00;54.74
58471;BME280;44258;51.288;12.068;2023-05-10T08:06:28;99884.47;;;15.01;55.89
58471;BME280;44258;51.288;12.068;2023-05-10T08:08:55;99891.69;;;15.12;55.64
58471;BME280;44258;51.288;12.068;2023-05-10T08:11:22;99891.28;;;15.17;56.16
58471;BME280;44258;51.288;12.068;2023-05-10T08:13:50;99894.66;;;15.09;57.11
58471;BME280;44258;51.288;12.068;2023-05-10T08:16:19;99897.09;;;15.12;57.13
58471;BME280;44258;51.288;12.068;2023-05-10T08:18:47;99902.91;;;15.07;57.75
58471;BME280;44258;51.288;12.068;2023-05-10T08:21:14;99895.97;;;15.14;57.79
58471;BME280;44258;51.288;12.068;2023-05-10T08:23:41;99894.00;;;15.28;57.66
58471;BME280;44258;51.288;12.068;2023-05-10T08:26:09;99892.59;;;15.45;57.72
58471;BME280;44258;51.288;12.068;2023-05-10T08:28:36;99892.31;;;15.59;57.80
58471;BME280;44258;51.288;12.068;2023-05-10T08:31:04;99904.16;;;15.58;57.21
58471;BME280;44258;51.288;12.068;2023-05-10T08:33:31;99906.69;;;15.71;57.83
58471;BME280;44258;51.288;12.068;2023-05-10T08:35:59;99903.31;;;15.79;58.01
58471;BME280;44258;51.288;12.068;2023-05-10T08:38:25;99910.34;;;15.81;57.77
58471;BME280;44258;51.288;12.068;2023-05-10T08:40:54;99915.03;;;15.79;57.88
58471;BME280;44258;51.288;12.068;2023-05-10T08:43:27;99924.69;;;15.72;58.86
58471;BME280;44258;51.288;12.068;2023-05-10T08:45:55;99920.34;;;15.69;58.80
58471;BME280;44258;51.288;12.068;2023-05-10T08:48:23;99915.59;;;15.62;59.32
58471;BME280;44258;51.288;12.068;2023-05-10T08:50:53;99931.34;;;15.68;59.75
58471;BME280;44258;51.288;12.068;2023-05-10T08:53:29;99924.06;;;15.68;60.00
58471;BME280;44258;51.288;12.068;2023-05-10T08:55:57;99929.16;;;15.62;59.03
58471;BME280;44258;51.288;12.068;2023-05-10T08:58:26;99930.03;;;15.51;59.26
58471;BME280;44258;51.288;12.068;2023-05-10T09:00:57;99927.19;;;15.52;59.30
58471;BME280;44258;51.288;12.068;2023-05-10T09:03:24;99933.63;;;15.51;59.27
58471;BME280;44258;51.288;12.068;2023-05-10T09:05:51;99938.16;;;15.62;59.46
58471;BME280;44258;51.288;12.068;2023-05-10T09:08:23;99935.31;;;15.64;59.43
58471;BME280;44258;51.288;12.068;2023-05-10T09:10:51;99945.41;;;15.62;59.89
58471;BME280;44258;51.288;12.068;2023-05-10T09:13:19;99948.19;;;15.71;60.17
58471;BME280;44258;51.288;12.068;2023-05-10T09:15:59;99949.41;;;15.79;60.42
58471;BME280;44258;51.288;12.068;2023-05-10T09:18:26;99955.38;;;15.93;60.49
58471;BME280;44258;51.288;12.068;2023-05-10T09:20:52;99957.56;;;16.00;60.21
58471;BME280;44258;51.288;12.068;2023-05-10T09:23:19;99963.28;;;15.97;60.32
58471;BME280;44258;51.288;12.068;2023-05-10T09:25:47;99956.94;;;15.75;61.26
58471;BME280;44258;51.288;12.068;2023-05-10T09:28:13;99957.56;;;15.67;61.84
58471;BME280;44258;51.288;12.068;2023-05-10T09:30:40;99961.06;;;15.58;62.38
58471;BME280;44258;51.288;12.068;2023-05-10T09:33:14;99961.91;;;15.70;62.91
58471;BME280;44258;51.288;12.068;2023-05-10T09:35:44;99957.16;;;15.83;62.59
58471;BME280;44258;51.288;12.068;2023-05-10T09:38:10;99967.16;;;15.83;63.08
58471;BME280;44258;51.288;12.068;2023-05-10T09:40:37;99969.47;;;15.87;63.08
58471;BME280;44258;51.288;12.068;2023-05-10T09:43:08;99974.25;;;15.95;63.51
58471;BME280;44258;51.288;12.068;2023-05-10T09:45:36;99981.75;;;16.03;62.80
58471;BME280;44258;51.288;12.068;2023-05-10T09:48:03;99978.03;;;16.04;62.39
58471;BME280;44258;51.288;12.068;2023-05-10T09:50:33;99973.41;;;15.83;63.39
58471;BME280;44258;51.288;12.068;2023-05-10T09:53:01;99976.22;;;15.93;63.41
58471;BME280;44258;51.288;12.068;2023-05-10T09:55:38;99975.91;;;16.07;63.23
58471;BME280;44258;51.288;12.068;2023-05-10T09:58:14;99972.28;;;16.18;63.02
58471;BME280;44258;51.288;12.068;2023-05-10T10:00:43;99985.38;;;16.13;63.06
58471;BME280;44258;51.288;12.068;2023-05-10T10:03:13;99985.09;;;16.16;63.34
58471;BME280;44258;51.288;12.068;2023-05-10T10:05:41;99986.84;;;16.17;63.55
58471;BME280;44258;51.288;12.068;2023-05-10T10:08:08;99988.94;;;16.13;64.06
58471;BME280;44258;51.288;12.068;2023-05-10T10:10:35;99989.97;;;16.12;64.34
58471;BME280;44258;51.288;12.068;2023-05-10T10:13:02;99993.59;;;16.23;64.59
58471;BME280;44258;51.288;12.068;2023-05-10T10:15:33;99991.84;;;16.33;64.88
58471;BME280;44258;51.288;12.068;2023-05-10T10:18:00;100001.06;;;16.42;64.07
58471;BME280;44258;51.288;12.068;2023-05-10T10:20:28;99996.16;;;16.57;64.12
58471;BME280;44258;51.288;12.068;2023-05-10T10:22:56;99994.28;;;16.78;64.01
58471;BME280;44258;51.288;12.068;2023-05-10T10:25:22;99995.63;;;16.93;63.13
58471;BME280;44258;51.288;12.068;2023-05-10T10:28:04;99992.13;;;17.03;63.03
58471;BME280;44258;51.288;12.068;2023-05-10T10:30:48;99991.44;;;17.10;63.26
58471;BME280;44258;51.288;12.068;2023-05-10T10:33:36;99992.38;;;17.21;63.24
58471;BME280;44258;51.288;12.068;2023-05-10T10:36:06;99993.53;;;17.28;63.63
58471;BME280;44258;51.288;12.068;2023-05-10T10:38:56;100004.00;;;17.32;63.83
58471;BME280;44258;51.288;12.068;2023-05-10T10:41:32;99997.69;;;17.32;63.29
58471;BME280;44258;51.288;12.068;2023-05-10T10:47:21;100003.63;;;17.66;63.21
58471;BME280;44258;51.288;12.068;2023-05-10T10:50:05;100004.66;;;17.75;62.79
58471;BME280;44258;51.288;12.068;2023-05-10T10:52:33;100000.53;;;17.90;62.24
58471;BME280;44258;51.288;12.068;2023-05-10T10:55:01;100000.38;;;17.82;62.73
58471;BME280;44258;51.288;12.068;2023-05-10T10:57:31;100000.13;;;17.85;62.75
58471;BME280;44258;51.288;12.068;2023-05-10T11:00:21;100003.22;;;17.81;62.42
58471;BME280;44258;51.288;12.068;2023-05-10T11:02:53;100002.94;;;17.74;62.86
58471;BME280;44258;51.288;12.068;2023-05-10T11:05:34;99999.06;;;17.77;62.56
58471;BME280;44258;51.288;12.068;2023-05-10T11:08:11;99999.09;;;17.86;62.93
58471;BME280;44258;51.288;12.068;2023-05-10T11:10:40;100006.56;;;18.04;63.13
58471;BME280;44258;51.288;12.068;2023-05-10T11:13:07;99996.84;;;18.21;62.27
58471;BME280;44258;51.288;12.068;2023-05-10T11:15:36;100008.91;;;18.18;62.67
58471;BME280;44258;51.288;12.068;2023-05-10T11:18:20;100013.72;;;18.05;61.95
58471;BME280;44258;51.288;12.068;2023-05-10T11:20:57;100007.84;;;17.90;62.38
58471;BME280;44258;51.288;12.068;2023-05-10T11:23:29;100001.94;;;17.85;62.58
58471;BME280;44258;51.288;12.068;2023-05-10T11:25:56;100007.47;;;18.14;62.60
58471;BME280;44258;51.288;12.068;2023-05-10T11:28:27;100008.00;;;18.37;62.47
58471;BME280;44258;51.288;12.068;2023-05-10T11:30:54;100010.88;;;18.45;62.25
58471;BME280;44258;51.288;12.068;2023-05-10T11:33:22;100012.44;;;18.38;62.79
58471;BME280;44258;51.288;12.068;2023-05-10T11:35:54;100010.56;;;18.58;62.23
58471;BME280;44258;51.288;12.068;2023-05-10T11:38:21;100012.81;;;18.72;61.55
58471;BME280;44258;51.288;12.068;2023-05-10T11:40:51;100011.97;;;18.72;60.97
58471;BME280;44258;51.288;12.068;2023-05-10T11:43:19;100009.81;;;18.85;60.02
58471;BME280;44258;51.288;12.068;2023-05-10T11:45:54;100013.69;;;18.73;60.82
58471;BME280;44258;51.288;12.068;2023-05-10T11:48:22;100011.28;;;18.60;60.62
58471;BME280;44258;51.288;12.068;2023-05-10T11:50:49;100014.00;;;18.60;60.96
58471;BME280;44258;51.288;12.068;2023-05-10T11:53:19;100017.47;;;18.52;60.59
58471;BME280;44258;51.288;12.068;2023-05-10T11:55:46;100021.75;;;18.45;60.43
58471;BME280;44258;51.288;12.068;2023-05-10T11:58:22;100020.78;;;18.37;61.48
58471;BME280;44258;51.288;12.068;2023-05-10T12:00:49;100029.94;;;18.45;60.63
58471;BME280;44258;51.288;12.068;2023-05-10T12:03:16;100038.09;;;18.36;61.21
58471;BME280;44258;51.288;12.068;2023-05-10T12:05:44;100041.81;;;18.15;60.71
58471;BME280;44258;51.288;12.068;2023-05-10T12:08:12;100042.50;;;17.98;60.30
58471;BME280;44258;51.288;12.068;2023-05-10T12:10:41;100059.16;;;17.64;60.38
58471;BME280;44258;51.288;12.068;2023-05-10T12:13:11;100056.06;;;17.38;61.51
58471;BME280;44258;51.288;12.068;2023-05-10T12:15:40;100062.00;;;17.22;61.94
58471;BME280;44258;51.288;12.068;2023-05-10T12:18:08;100060.41;;;17.19;62.43
58471;BME280;44258;51.288;12.068;2023-05-10T12:20:36;100057.59;;;17.21;62.48
58471;BME280;44258;51.288;12.068;2023-05-10T12:23:04;100053.50;;;17.15;63.08
58471;BME280;44258;51.288;12.068;2023-05-10T12:25:33;100061.03;;;17.23;63.30
58471;BME280;44258;51.288;12.068;2023-05-10T12:28:03;100065.59;;;17.22;63.44
58471;BME280;44258;51.288;12.068;2023-05-10T12:30:30;100065.44;;;17.24;64.11
58471;BME280;44258;51.288;12.068;2023-05-10T12:33:00;100066.97;;;17.17;63.88
58471;BME280;44258;51.288;12.068;2023-05-10T12:35:33;100064.63;;;17.12;64.22
58471;BME280;44258;51.288;12.068;2023-05-10T12:38:00;100068.44;;;17.21;64.45
58471;BME280;44258;51.288;12.068;2023-05-10T12:40:28;100070.66;;;17.15;64.72
58471;BME280;44258;51.288;12.068;2023-05-10T12:42:58;100072.94;;;17.31;64.41
58471;BME280;44258;51.288;12.068;2023-05-10T12:45:25;100071.66;;;17.36;64.51
58471;BME280;44258;51.288;12.068;2023-05-10T12:47:51;100076.41;;;17.43;64.12
58471;BME280;44258;51.288;12.068;2023-05-10T12:53:59;100074.75;;;17.62;64.41
58471;BME280;44258;51.288;12.068;2023-05-10T12:56:27;100073.75;;;17.63;63.64
58471;BME280;44258;51.288;12.068;2023-05-10T12:58:53;100082.03;;;17.51;63.98
58471;BME280;44258;51.288;12.068;2023-05-10T13:01:20;100078.88;;;17.56;65.06
58471;BME280;44258;51.288;12.068;2023-05-10T13:03:46;100082.06;;;17.61;64.00
58471;BME280;44258;51.288;12.068;2023-05-10T13:06:13;100078.78;;;17.67;64.07
58471;BME280;44258;51.288;12.068;2023-05-10T13:08:40;100085.69;;;17.81;63.65
58471;BME280;44258;51.288;12.068;2023-05-10T13:11:07;100084.31;;;17.97;63.88